sensor_id;sensor_type;location;lat;lon;timestamp;P1;durP1;ratioP1;P2;durP2;ratioP2
11498;SDS011;5806;48.748;9.278;2024-02-15T00:01:14;4.73;;;2.87;;
11498;SDS011;5806;48.748;9.278;2024-02-15T00:03:41;4.63;;;2.90;;
11498;SDS011;5806;48.748;9.278;2024-02-15T00:06:09;5.13;;;2.63;;
11498;SDS011;5806;48.748;9.278;2024-02-15T00:08:36;4.30;;;3.00;;
11498;SDS011;5806;48.748;9.278;2024-02-15T00:11:03;2.87;;;2.67;;
11498;SDS011;5806;48.748;9.278;2024-02-15T00:13:31;3.23;;;2.93;;
11498;SDS011;5806;48.748;9.278;2024-02-15T00:15:59;4.10;;;3.10;;
11498;SDS011;5806;48.748;9.278;2024-02-15T00:18:27;4.13;;;2.93;;
11498;SDS011;5806;48.748;9.278;2024-02-15T00:20:54;3.73;;;2.87;;
11498;SDS011;5806;48.748;9.278;2024-02-15T00:23:22;3.90;;;2.90;;
11498;SDS011;5806;48.748;9.278;2024-02-15T00:25:49;4.10;;;3.23;;
11498;SDS011;5806;48.748;9.278;2024-02-15T00:28:17;6.17;;;3.43;;
11498;SDS011;5806;48.748;9.278;2024-02-15T00:30:45;3.30;;;2.93;;
11498;SDS011;5806;48.748;9.278;2024-02-15T00:33:13;4.10;;;3.37;;
11498;SDS011;5806;48.748;9.278;2024-02-15T00:35:40;4.90;;;3.20;;
11498;SDS011;5806;48.748;9.278;2024-02-15T00:38:08;5.63;;;3.80;;
11498;SDS011;5806;48.748;9.278;2024-02-15T00:40:35;4.17;;;3.70;;
11498;SDS011;5806;48.748;9.278;2024-02-15T00:43:03;4.00;;;3.47;;
11498;SDS011;5806;48.748;9.278;2024-02-15T00:45:30;4.23;;;3.00;;
11498;SDS011;5806;48.748;9.278;2024-02-15T00:47:57;6.30;;;3.40;;
11498;SDS011;5806;48.748;9.278;2024-02-15T00:50:25;4.63;;;3.53;;
11498;SDS011;5806;48.748;9.278;2024-02-15T00:52:52;4.20;;;3.17;;
11498;SDS011;5806;48.748;9.278;2024-02-15T00:55:20;6.73;;;3.63;;
11498;SDS011;5806;48.748;9.278;2024-02-15T00:57:47;5.30;;;4.00;;
11498;SDS011;5806;48.748;9.278;2024-02-15T01:00:15;5.70;;;3.47;;
11498;SDS011;5806;48.748;9.278;2024-02-15T01:02:42;5.10;;;3.27;;
11498;SDS011;5806;48.748;9.278;2024-02-15T01:05:11;4.87;;;3.40;;
11498;SDS011;5806;48.748;9.278;2024-02-15T01:07:40;4.57;;;3.30;;
11498;SDS011;5806;48.748;9.278;2024-02-15T01:10:08;7.97;;;3.80;;
11498;SDS011;5806;48.748;9.278;2024-02-15T01:12:35;4.47;;;3.70;;
11498;SDS011;5806;48.748;9.278;2024-02-15T01:15:03;6.70;;;4.07;;
11498;SDS011;5806;48.748;9.278;2024-02-15T01:17:31;3.87;;;3.20;;
11498;SDS011;5806;48.748;9.278;2024-02-15T01:19:59;5.77;;;3.53;;
11498;SDS011;5806;48.748;9.278;2024-02-15T01:22:26;5.87;;;3.87;;
11498;SDS011;5806;48.748;9.278;2024-02-15T01:24:54;5.73;;;4.03;;
11498;SDS011;5806;48.748;9.278;2024-02-15T01:27:23;5.23;;;4.00;;
11498;SDS011;5806;48.748;9.278;2024-02-15T01:29:52;6.90;;;4.27;;
11498;SDS011;5806;48.748;9.278;2024-02-15T01:32:19;5.40;;;4.33;;
11498;SDS011;5806;48.748;9.278;2024-02-15T01:34:47;8.33;;;4.47;;
11498;SDS011;5806;48.748;9.278;2024-02-15T01:37:16;6.33;;;4.23;;
11498;SDS011;5806;48.748;9.278;2024-02-15T01:39:43;7.00;;;4.10;;
11498;SDS011;5806;48.748;9.278;2024-02-15T01:42:11;5.67;;;3.90;;
11498;SDS011;5806;48.748;9.278;2024-02-15T01:44:40;5.07;;;4.00;;
11498;SDS011;5806;48.748;9.278;2024-02-15T01:47:10;5.67;;;4.10;;
11498;SDS011;5806;48.748;9.278;2024-02-15T01:49:38;7.33;;;3.57;;
11498;SDS011;5806;48.748;9.278;2024-02-15T01:52:06;8.43;;;4.33;;
11498;SDS011;5806;48.748;9.278;2024-02-15T01:54:35;8.63;;;4.87;;
11498;SDS011;5806;48.748;9.278;2024-02-15T01:57:04;7.77;;;4.10;;
11498;SDS011;5806;48.748;9.278;2024-02-15T01:59:32;7.40;;;4.40;;
11498;SDS011;5806;48.748;9.278;2024-02-15T02:02:00;9.37;;;4.60;;
11498;SDS011;5806;48.748;9.278;2024-02-15T02:04:28;6.63;;;3.90;;
11498;SDS011;5806;48.748;9.278;2024-02-15T02:06:57;6.73;;;4.33;;
11498;SDS011;5806;48.748;9.278;2024-02-15T02:09:24;5.63;;;4.00;;
11498;SDS011;5806;48.748;9.278;2024-02-15T02:11:52;9.30;;;4.10;;
11498;SDS011;5806;48.748;9.278;2024-02-15T02:14:19;9.90;;;4.53;;
11498;SDS011;5806;48.748;9.278;2024-02-15T02:16:48;5.30;;;4.03;;
11498;SDS011;5806;48.748;9.278;2024-02-15T02:19:15;6.70;;;4.17;;
11498;SDS011;5806;48.748;9.278;2024-02-15T02:21:43;8.30;;;4.57;;
11498;SDS011;5806;48.748;9.278;2024-02-15T02:24:12;8.23;;;3.90;;
11498;SDS011;5806;48.748;9.278;2024-02-15T02:26:40;4.73;;;3.70;;
11498;SDS011;5806;48.748;9.278;2024-02-15T02:29:07;5.10;;;3.60;;
11498;SDS011;5806;48.748;9.278;2024-02-15T02:31:36;9.40;;;3.87;;
11498;SDS011;5806;48.748;9.278;2024-02-15T02:34:03;7.37;;;4.33;;
11498;SDS011;5806;48.748;9.278;2024-02-15T02:36:32;8.20;;;4.50;;
11498;SDS011;5806;48.748;9.278;2024-02-15T02:39:00;6.60;;;4.17;;
11498;SDS011;5806;48.748;9.278;2024-02-15T02:41:27;7.77;;;4.37;;
11498;SDS011;5806;48.748;9.278;2024-02-15T02:43:55;5.87;;;4.20;;
11498;SDS011;5806;48.748;9.278;2024-02-15T02:46:23;6.17;;;3.97;;
11498;SDS011;5806;48.748;9.278;2024-02-15T02:48:51;6.53;;;4.27;;
11498;SDS011;5806;48.748;9.278;2024-02-15T02:51:18;8.70;;;3.80;;
11498;SDS011;5806;48.748;9.278;2024-02-15T02:53:46;5.93;;;4.53;;
11498;SDS011;5806;48.748;9.278;2024-02-15T02:56:13;6.50;;;4.07;;
11498;SDS011;5806;48.748;9.278;2024-02-15T02:58:41;9.47;;;4.20;;
11498;SDS011;5806;48.748;9.278;2024-02-15T03:01:08;7.00;;;3.97;;
11498;SDS011;5806;48.748;9.278;2024-02-15T03:03:37;7.23;;;4.23;;
11498;SDS011;5806;48.748;9.278;2024-02-15T03:06:05;6.87;;;4.00;;
11498;SDS011;5806;48.748;9.278;2024-02-15T03:08:32;9.67;;;4.07;;
11498;SDS011;5806;48.748;9.278;2024-02-15T03:11:00;6.10;;;4.03;;
11498;SDS011;5806;48.748;9.278;2024-02-15T03:13:27;9.13;;;3.97;;
11498;SDS011;5806;48.748;9.278;2024-02-15T03:15:55;5.20;;;3.90;;
11498;SDS011;5806;48.748;9.278;2024-02-15T03:18:22;9.30;;;4.77;;
11498;SDS011;5806;48.748;9.278;2024-02-15T03:20:50;7.30;;;4.17;;
11498;SDS011;5806;48.748;9.278;2024-02-15T03:23:17;6.07;;;3.67;;
11498;SDS011;5806;48.748;9.278;2024-02-15T03:25:45;6.33;;;4.03;;
11498;SDS011;5806;48.748;9.278;2024-02-15T03:28:14;7.13;;;4.70;;
11498;SDS011;5806;48.748;9.278;2024-02-15T03:30:41;4.37;;;3.40;;
11498;SDS011;5806;48.748;9.278;2024-02-15T03:33:09;8.70;;;3.93;;
11498;SDS011;5806;48.748;9.278;2024-02-15T03:35:38;5.53;;;4.17;;
11498;SDS011;5806;48.748;9.278;2024-02-15T03:38:06;7.07;;;4.20;;
11498;SDS011;5806;48.748;9.278;2024-02-15T03:40:33;9.33;;;3.93;;
11498;SDS011;5806;48.748;9.278;2024-02-15T03:43:01;9.03;;;4.40;;
11498;SDS011;5806;48.748;9.278;2024-02-15T03:45:30;7.23;;;4.20;;
11498;SDS011;5806;48.748;9.278;2024-02-15T03:47:58;5.97;;;3.80;;
11498;SDS011;5806;48.748;9.278;2024-02-15T03:50:25;6.70;;;4.10;;
11498;SDS011;5806;48.748;9.278;2024-02-15T03:52:54;5.57;;;3.90;;
11498;SDS011;5806;48.748;9.278;2024-02-15T03:55:21;5.07;;;3.90;;
11498;SDS011;5806;48.748;9.278;2024-02-15T03:57:50;6.80;;;4.27;;
11498;SDS011;5806;48.748;9.278;2024-02-15T04:00:20;5.93;;;4.40;;
11498;SDS011;5806;48.748;9.278;2024-02-15T04:02:47;9.00;;;4.57;;
11498;SDS011;5806;48.748;9.278;2024-02-15T04:05:15;6.30;;;4.03;;
11498;SDS011;5806;48.748;9.278;2024-02-15T04:07:44;7.27;;;4.67;;
11498;SDS011;5806;48.748;9.278;2024-02-15T04:10:11;7.37;;;4.37;;
11498;SDS011;5806;48.748;9.278;2024-02-15T04:12:39;7.57;;;4.73;;
11498;SDS011;5806;48.748;9.278;2024-02-15T04:15:09;7.67;;;4.30;;
11498;SDS011;5806;48.748;9.278;2024-02-15T04:17:41;8.23;;;4.60;;
11498;SDS011;5806;48.748;9.278;2024-02-15T04:20:10;8.63;;;4.70;;
11498;SDS011;5806;48.748;9.278;2024-02-15T04:22:38;6.17;;;4.17;;
11498;SDS011;5806;48.748;9.278;2024-02-15T04:25:07;7.70;;;4.03;;
11498;SDS011;5806;48.748;9.278;2024-02-15T04:27:35;6.23;;;4.30;;
11498;SDS011;5806;48.748;9.278;2024-02-15T04:30:03;7.40;;;4.23;;
11498;SDS011;5806;48.748;9.278;2024-02-15T04:32:32;6.53;;;4.20;;
11498;SDS011;5806;48.748;9.278;2024-02-15T04:35:01;6.80;;;3.50;;
11498;SDS011;5806;48.748;9.278;2024-02-15T04:37:30;5.87;;;4.20;;
11498;SDS011;5806;48.748;9.278;2024-02-15T04:40:00;5.83;;;3.83;;
11498;SDS011;5806;48.748;9.278;2024-02-15T04:42:29;9.07;;;3.47;;
11498;SDS011;5806;48.748;9.278;2024-02-15T04:44:58;6.43;;;3.63;;
11498;SDS011;5806;48.748;9.278;2024-02-15T04:47:25;9.00;;;3.83;;
11498;SDS011;5806;48.748;9.278;2024-02-15T04:49:53;4.57;;;3.57;;
11498;SDS011;5806;48.748;9.278;2024-02-15T04:52:20;6.63;;;4.53;;
11498;SDS011;5806;48.748;9.278;2024-02-15T04:54:49;9.87;;;3.90;;
11498;SDS011;5806;48.748;9.278;2024-02-15T04:57:16;7.07;;;3.63;;
11498;SDS011;5806;48.748;9.278;2024-02-15T04:59:44;7.37;;;3.40;;
11498;SDS011;5806;48.748;9.278;2024-02-15T05:02:13;5.33;;;3.57;;
11498;SDS011;5806;48.748;9.278;2024-02-15T05:04:40;4.60;;;3.50;;
11498;SDS011;5806;48.748;9.278;2024-02-15T05:07:13;6.47;;;3.67;;
11498;SDS011;5806;48.748;9.278;2024-02-15T05:09:39;5.83;;;4.00;;
11498;SDS011;5806;48.748;9.278;2024-02-15T05:12:06;7.33;;;3.63;;
11498;SDS011;5806;48.748;9.278;2024-02-15T05:14:33;7.37;;;3.90;;
11498;SDS011;5806;48.748;9.278;2024-02-15T05:17:02;9.67;;;4.20;;
11498;SDS011;5806;48.748;9.278;2024-02-15T05:19:29;9.17;;;4.07;;
11498;SDS011;5806;48.748;9.278;2024-02-15T05:21:58;5.57;;;3.27;;
11498;SDS011;5806;48.748;9.278;2024-02-15T05:24:26;7.37;;;4.20;;
11498;SDS011;5806;48.748;9.278;2024-02-15T05:26:54;5.57;;;4.00;;
11498;SDS011;5806;48.748;9.278;2024-02-15T05:29:21;10.53;;;4.93;;
11498;SDS011;5806;48.748;9.278;2024-02-15T05:31:49;9.10;;;3.53;;
11498;SDS011;5806;48.748;9.278;2024-02-15T05:34:20;7.40;;;4.43;;
11498;SDS011;5806;48.748;9.278;2024-02-15T05:36:47;6.50;;;4.20;;
11498;SDS011;5806;48.748;9.278;2024-02-15T05:39:15;5.40;;;4.17;;
11498;SDS011;5806;48.748;9.278;2024-02-15T05:41:44;6.83;;;4.20;;
11498;SDS011;5806;48.748;9.278;2024-02-15T05:44:11;8.87;;;5.23;;
11498;SDS011;5806;48.748;9.278;2024-02-15T05:46:40;7.17;;;4.33;;
11498;SDS011;5806;48.748;9.278;2024-02-15T05:49:08;5.30;;;4.40;;
11498;SDS011;5806;48.748;9.278;2024-02-15T05:51:37;8.60;;;5.27;;
11498;SDS011;5806;48.748;9.278;2024-02-15T05:54:04;6.57;;;5.03;;
11498;SDS011;5806;48.748;9.278;2024-02-15T05:56:32;8.87;;;5.23;;
11498;SDS011;5806;48.748;9.278;2024-02-15T05:58:59;5.57;;;4.70;;
11498;SDS011;5806;48.748;9.278;2024-02-15T06:01:28;8.63;;;5.27;;
11498;SDS011;5806;48.748;9.278;2024-02-15T06:03:56;8.83;;;5.37;;
11498;SDS011;5806;48.748;9.278;2024-02-15T06:06:23;7.97;;;5.30;;
11498;SDS011;5806;48.748;9.278;2024-02-15T06:08:52;10.17;;;5.23;;
11498;SDS011;5806;48.748;9.278;2024-02-15T06:11:21;9.73;;;5.07;;
11498;SDS011;5806;48.748;9.278;2024-02-15T06:13:48;11.63;;;5.10;;
11498;SDS011;5806;48.748;9.278;2024-02-15T06:16:15;9.50;;;4.80;;
11498;SDS011;5806;48.748;9.278;2024-02-15T06:18:43;8.40;;;4.13;;
11498;SDS011;5806;48.748;9.278;2024-02-15T06:21:10;8.17;;;4.60;;
11498;SDS011;5806;48.748;9.278;2024-02-15T06:23:38;10.23;;;4.90;;
11498;SDS011;5806;48.748;9.278;2024-02-15T06:26:06;7.17;;;4.33;;
11498;SDS011;5806;48.748;9.278;2024-02-15T06:28:33;8.17;;;4.37;;
11498;SDS011;5806;48.748;9.278;2024-02-15T06:31:18;6.63;;;4.27;;
11498;SDS011;5806;48.748;9.278;2024-02-15T06:34:03;7.97;;;4.40;;
11498;SDS011;5806;48.748;9.278;2024-02-15T06:36:55;6.40;;;4.07;;
11498;SDS011;5806;48.748;9.278;2024-02-15T06:39:41;9.80;;;4.00;;
11498;SDS011;5806;48.748;9.278;2024-02-15T06:42:13;6.87;;;4.00;;
11498;SDS011;5806;48.748;9.278;2024-02-15T06:44:42;6.47;;;3.90;;
11498;SDS011;5806;48.748;9.278;2024-02-15T06:47:10;8.10;;;4.03;;
11498;SDS011;5806;48.748;9.278;2024-02-15T06:49:38;7.23;;;4.27;;
11498;SDS011;5806;48.748;9.278;2024-02-15T06:52:12;5.60;;;4.17;;
11498;SDS011;5806;48.748;9.278;2024-02-15T06:54:37;6.67;;;3.77;;
11498;SDS011;5806;48.748;9.278;2024-02-15T06:57:05;6.60;;;3.90;;
11498;SDS011;5806;48.748;9.278;2024-02-15T06:59:33;5.03;;;3.50;;
11498;SDS011;5806;48.748;9.278;2024-02-15T07:02:02;10.00;;;4.47;;
11498;SDS011;5806;48.748;9.278;2024-02-15T07:04:33;7.87;;;3.83;;
11498;SDS011;5806;48.748;9.278;2024-02-15T07:07:02;6.40;;;3.90;;
11498;SDS011;5806;48.748;9.278;2024-02-15T07:09:29;4.33;;;3.33;;
11498;SDS011;5806;48.748;9.278;2024-02-15T07:11:58;8.37;;;3.60;;
11498;SDS011;5806;48.748;9.278;2024-02-15T07:14:25;5.50;;;3.57;;
11498;SDS011;5806;48.748;9.278;2024-02-15T07:16:55;8.13;;;4.00;;
11498;SDS011;5806;48.748;9.278;2024-02-15T07:19:24;5.53;;;3.50;;
11498;SDS011;5806;48.748;9.278;2024-02-15T07:21:53;8.20;;;3.67;;
11498;SDS011;5806;48.748;9.278;2024-02-15T07:24:22;7.10;;;3.90;;
11498;SDS011;5806;48.748;9.278;2024-02-15T07:26:51;4.57;;;3.57;;
11498;SDS011;5806;48.748;9.278;2024-02-15T07:29:25;8.53;;;4.07;;
11498;SDS011;5806;48.748;9.278;2024-02-15T07:31:50;8.40;;;3.50;;
11498;SDS011;5806;48.748;9.278;2024-02-15T07:34:19;10.33;;;3.50;;
11498;SDS011;5806;48.748;9.278;2024-02-15T07:36:46;8.90;;;3.73;;
11498;SDS011;5806;48.748;9.278;2024-02-15T07:39:14;9.03;;;3.63;;
11498;SDS011;5806;48.748;9.278;2024-02-15T07:41:43;6.77;;;3.20;;
11498;SDS011;5806;48.748;9.278;2024-02-15T07:44:10;13.13;;;3.60;;
11498;SDS011;5806;48.748;9.278;2024-02-15T07:46:38;8.63;;;4.13;;
11498;SDS011;5806;48.748;9.278;2024-02-15T07:49:05;5.67;;;3.03;;
11498;SDS011;5806;48.748;9.278;2024-02-15T07:51:33;6.97;;;3.40;;
11498;SDS011;5806;48.748;9.278;2024-02-15T07:54:01;9.47;;;3.90;;
11498;SDS011;5806;48.748;9.278;2024-02-15T07:56:30;7.50;;;3.37;;
11498;SDS011;5806;48.748;9.278;2024-02-15T07:58:57;4.90;;;3.20;;
11498;SDS011;5806;48.748;9.278;2024-02-15T08:01:25;5.80;;;3.47;;
11498;SDS011;5806;48.748;9.278;2024-02-15T08:03:52;4.43;;;3.00;;
11498;SDS011;5806;48.748;9.278;2024-02-15T08:06:20;6.73;;;3.37;;
11498;SDS011;5806;48.748;9.278;2024-02-15T08:08:49;8.63;;;3.47;;
11498;SDS011;5806;48.748;9.278;2024-02-15T08:11:17;8.63;;;3.43;;
11498;SDS011;5806;48.748;9.278;2024-02-15T08:16:18;8.03;;;5.17;;
11498;SDS011;5806;48.748;9.278;2024-02-15T08:18:49;10.80;;;5.60;;
11498;SDS011;5806;48.748;9.278;2024-02-15T08:21:29;12.97;;;4.90;;
11498;SDS011;5806;48.748;9.278;2024-02-15T08:24:02;11.10;;;4.70;;
11498;SDS011;5806;48.748;9.278;2024-02-15T08:26:37;8.80;;;3.60;;
11498;SDS011;5806;48.748;9.278;2024-02-15T08:29:06;8.13;;;3.13;;
11498;SDS011;5806;48.748;9.278;2024-02-15T08:31:34;7.27;;;4.00;;
11498;SDS011;5806;48.748;9.278;2024-02-15T08:34:02;10.33;;;4.00;;
11498;SDS011;5806;48.748;9.278;2024-02-15T08:36:34;7.60;;;3.63;;
11498;SDS011;5806;48.748;9.278;2024-02-15T08:39:02;6.57;;;3.70;;
11498;SDS011;5806;48.748;9.278;2024-02-15T08:41:30;6.60;;;3.80;;
11498;SDS011;5806;48.748;9.278;2024-02-15T08:43:58;8.93;;;3.00;;
11498;SDS011;5806;48.748;9.278;2024-02-15T08:46:26;7.83;;;3.20;;
11498;SDS011;5806;48.748;9.278;2024-02-15T08:48:54;7.53;;;3.30;;
11498;SDS011;5806;48.748;9.278;2024-02-15T08:51:21;7.27;;;2.87;;
11498;SDS011;5806;48.748;9.278;2024-02-15T08:53:49;8.90;;;2.93;;
11498;SDS011;5806;48.748;9.278;2024-02-15T08:56:16;7.87;;;3.40;;
11498;SDS011;5806;48.748;9.278;2024-02-15T08:58:44;7.37;;;3.30;;
11498;SDS011;5806;48.748;9.278;2024-02-15T09:01:12;9.83;;;2.73;;
11498;SDS011;5806;48.748;9.278;2024-02-15T09:03:40;7.77;;;2.87;;
11498;SDS011;5806;48.748;9.278;2024-02-15T09:06:08;9.93;;;3.00;;
11498;SDS011;5806;48.748;9.278;2024-02-15T09:08:36;6.53;;;3.17;;
11498;SDS011;5806;48.748;9.278;2024-02-15T09:11:03;8.10;;;2.80;;
11498;SDS011;5806;48.748;9.278;2024-02-15T09:13:31;5.17;;;2.43;;
11498;SDS011;5806;48.748;9.278;2024-02-15T09:15:59;4.70;;;2.67;;
11498;SDS011;5806;48.748;9.278;2024-02-15T09:18:26;5.70;;;2.90;;
11498;SDS011;5806;48.748;9.278;2024-02-15T09:20:54;8.47;;;3.13;;
11498;SDS011;5806;48.748;9.278;2024-02-15T09:23:21;8.63;;;2.90;;
11498;SDS011;5806;48.748;9.278;2024-02-15T09:25:51;5.50;;;2.70;;
11498;SDS011;5806;48.748;9.278;2024-02-15T09:28:19;6.67;;;2.73;;
11498;SDS011;5806;48.748;9.278;2024-02-15T09:30:49;6.73;;;2.70;;
11498;SDS011;5806;48.748;9.278;2024-02-15T09:33:21;7.23;;;2.77;;
11498;SDS011;5806;48.748;9.278;2024-02-15T09:35:48;7.47;;;2.70;;
11498;SDS011;5806;48.748;9.278;2024-02-15T09:38:16;5.63;;;2.47;;
11498;SDS011;5806;48.748;9.278;2024-02-15T09:40:48;9.90;;;2.60;;
11498;SDS011;5806;48.748;9.278;2024-02-15T09:43:17;8.17;;;3.50;;
11498;SDS011;5806;48.748;9.278;2024-02-15T09:45:44;7.53;;;2.67;;
11498;SDS011;5806;48.748;9.278;2024-02-15T09:48:13;9.83;;;3.40;;
11498;SDS011;5806;48.748;9.278;2024-02-15T09:50:45;6.07;;;2.97;;
11498;SDS011;5806;48.748;9.278;2024-02-15T09:53:12;8.93;;;2.80;;
11498;SDS011;5806;48.748;9.278;2024-02-15T09:55:40;11.27;;;2.60;;
11498;SDS011;5806;48.748;9.278;2024-02-15T09:58:09;5.77;;;2.83;;
11498;SDS011;5806;48.748;9.278;2024-02-15T10:00:38;5.50;;;2.67;;
11498;SDS011;5806;48.748;9.278;2024-02-15T10:03:06;5.83;;;2.40;;
11498;SDS011;5806;48.748;9.278;2024-02-15T10:05:34;5.20;;;2.00;;
11498;SDS011;5806;48.748;9.278;2024-02-15T10:08:02;6.63;;;2.30;;
11498;SDS011;5806;48.748;9.278;2024-02-15T10:10:30;6.83;;;2.90;;
11498;SDS011;5806;48.748;9.278;2024-02-15T10:12:59;5.10;;;1.87;;
11498;SDS011;5806;48.748;9.278;2024-02-15T10:15:30;6.43;;;2.20;;
11498;SDS011;5806;48.748;9.278;2024-02-15T10:18:01;5.30;;;2.07;;
11498;SDS011;5806;48.748;9.278;2024-02-15T10:20:37;5.07;;;2.40;;
11498;SDS011;5806;48.748;9.278;2024-02-15T10:25:35;3.30;;;2.17;;
11498;SDS011;5806;48.748;9.278;2024-02-15T10:28:04;3.87;;;1.90;;
11498;SDS011;5806;48.748;9.278;2024-02-15T10:30:38;4.67;;;2.07;;
11498;SDS011;5806;48.748;9.278;2024-02-15T10:33:02;5.07;;;1.77;;
11498;SDS011;5806;48.748;9.278;2024-02-15T10:35:31;3.70;;;1.57;;
11498;SDS011;5806;48.748;9.278;2024-02-15T10:38:10;6.63;;;2.30;;
11498;SDS011;5806;48.748;9.278;2024-02-15T10:40:39;6.93;;;1.77;;
11498;SDS011;5806;48.748;9.278;2024-02-15T10:43:08;6.57;;;2.13;;
11498;SDS011;5806;48.748;9.278;2024-02-15T10:45:38;6.47;;;1.83;;
11498;SDS011;5806;48.748;9.278;2024-02-15T10:48:09;3.37;;;1.87;;
11498;SDS011;5806;48.748;9.278;2024-02-15T10:50:41;11.73;;;2.33;;
11498;SDS011;5806;48.748;9.278;2024-02-15T10:58:40;4.07;;;2.23;;
11498;SDS011;5806;48.748;9.278;2024-02-15T11:01:07;8.47;;;2.10;;
11498;SDS011;5806;48.748;9.278;2024-02-15T11:03:41;5.90;;;2.00;;
11498;SDS011;5806;48.748;9.278;2024-02-15T11:06:09;4.10;;;2.07;;
11498;SDS011;5806;48.748;9.278;2024-02-15T11:08:37;3.60;;;1.77;;
11498;SDS011;5806;48.748;9.278;2024-02-15T11:11:05;4.27;;;2.00;;
11498;SDS011;5806;48.748;9.278;2024-02-15T11:13:34;5.80;;;2.23;;
11498;SDS011;5806;48.748;9.278;2024-02-15T11:16:02;4.17;;;2.40;;
11498;SDS011;5806;48.748;9.278;2024-02-15T11:18:42;3.47;;;1.60;;
11498;SDS011;5806;48.748;9.278;2024-02-15T11:24:33;3.43;;;1.63;;
11498;SDS011;5806;48.748;9.278;2024-02-15T11:27:05;5.47;;;2.00;;
11498;SDS011;5806;48.748;9.278;2024-02-15T11:32:44;4.30;;;2.00;;
11498;SDS011;5806;48.748;9.278;2024-02-15T11:35:18;3.73;;;1.50;;
11498;SDS011;5806;48.748;9.278;2024-02-15T11:37:54;4.13;;;1.50;;
11498;SDS011;5806;48.748;9.278;2024-02-15T11:40:28;5.47;;;1.90;;
11498;SDS011;5806;48.748;9.278;2024-02-15T11:42:57;5.63;;;2.20;;
11498;SDS011;5806;48.748;9.278;2024-02-15T11:45:27;5.13;;;1.60;;
11498;SDS011;5806;48.748;9.278;2024-02-15T11:47:59;3.30;;;1.40;;
11498;SDS011;5806;48.748;9.278;2024-02-15T11:50:27;4.50;;;1.77;;
11498;SDS011;5806;48.748;9.278;2024-02-15T11:53:01;3.43;;;2.00;;
11498;SDS011;5806;48.748;9.278;2024-02-15T11:55:25;5.27;;;2.07;;
11498;SDS011;5806;48.748;9.278;2024-02-15T11:57:59;6.87;;;1.90;;
11498;SDS011;5806;48.748;9.278;2024-02-15T12:00:32;6.63;;;1.80;;
11498;SDS011;5806;48.748;9.278;2024-02-15T12:03:18;3.17;;;1.43;;
11498;SDS011;5806;48.748;9.278;2024-02-15T12:06:04;3.50;;;1.90;;
11498;SDS011;5806;48.748;9.278;2024-02-15T12:08:52;4.67;;;1.30;;
11498;SDS011;5806;48.748;9.278;2024-02-15T12:11:37;5.57;;;1.93;;
11498;SDS011;5806;48.748;9.278;2024-02-15T12:14:22;3.93;;;1.73;;
11498;SDS011;5806;48.748;9.278;2024-02-15T12:17:08;6.10;;;1.50;;
11498;SDS011;5806;48.748;9.278;2024-02-15T12:19:56;5.13;;;1.30;;
11498;SDS011;5806;48.748;9.278;2024-02-15T12:22:28;4.23;;;2.07;;
11498;SDS011;5806;48.748;9.278;2024-02-15T12:25:13;4.20;;;1.93;;
11498;SDS011;5806;48.748;9.278;2024-02-15T12:27:42;4.23;;;1.63;;
11498;SDS011;5806;48.748;9.278;2024-02-15T12:30:17;5.23;;;1.57;;
11498;SDS011;5806;48.748;9.278;2024-02-15T12:32:51;3.97;;;1.70;;
11498;SDS011;5806;48.748;9.278;2024-02-15T12:35:19;3.60;;;1.60;;
11498;SDS011;5806;48.748;9.278;2024-02-15T12:38:00;8.63;;;1.80;;
11498;SDS011;5806;48.748;9.278;2024-02-15T12:40:30;2.37;;;1.50;;
11498;SDS011;5806;48.748;9.278;2024-02-15T12:42:59;3.37;;;1.53;;
11498;SDS011;5806;48.748;9.278;2024-02-15T12:45:26;5.73;;;1.63;;
11498;SDS011;5806;48.748;9.278;2024-02-15T12:47:55;3.80;;;1.73;;
11498;SDS011;5806;48.748;9.278;2024-02-15T12:50:24;2.77;;;1.50;;
11498;SDS011;5806;48.748;9.278;2024-02-15T12:52:56;5.30;;;1.40;;
11498;SDS011;5806;48.748;9.278;2024-02-15T12:55:28;7.43;;;1.83;;
11498;SDS011;5806;48.748;9.278;2024-02-15T12:57:58;5.00;;;1.80;;
11498;SDS011;5806;48.748;9.278;2024-02-15T13:00:28;2.77;;;1.43;;
11498;SDS011;5806;48.748;9.278;2024-02-15T13:03:07;5.33;;;1.77;;
11498;SDS011;5806;48.748;9.278;2024-02-15T13:05:31;4.07;;;1.43;;
11498;SDS011;5806;48.748;9.278;2024-02-15T13:07:58;3.80;;;1.33;;
11498;SDS011;5806;48.748;9.278;2024-02-15T13:10:28;3.23;;;1.70;;
11498;SDS011;5806;48.748;9.278;2024-02-15T13:12:57;7.20;;;1.77;;
11498;SDS011;5806;48.748;9.278;2024-02-15T13:15:24;6.20;;;1.60;;
11498;SDS011;5806;48.748;9.278;2024-02-15T13:17:56;2.13;;;1.27;;
11498;SDS011;5806;48.748;9.278;2024-02-15T13:20:23;4.43;;;1.77;;
11498;SDS011;5806;48.748;9.278;2024-02-15T13:23:02;4.13;;;1.83;;
11498;SDS011;5806;48.748;9.278;2024-02-15T13:25:44;4.97;;;1.83;;
11498;SDS011;5806;48.748;9.278;2024-02-15T13:28:11;2.97;;;1.30;;
11498;SDS011;5806;48.748;9.278;2024-02-15T13:30:39;5.00;;;1.90;;
11498;SDS011;5806;48.748;9.278;2024-02-15T13:33:08;7.30;;;1.53;;
11498;SDS011;5806;48.748;9.278;2024-02-15T13:35:35;5.13;;;1.40;;
11498;SDS011;5806;48.748;9.278;2024-02-15T13:38:03;7.53;;;1.70;;
11498;SDS011;5806;48.748;9.278;2024-02-15T13:40:30;4.67;;;1.40;;
11498;SDS011;5806;48.748;9.278;2024-02-15T13:42:58;4.10;;;1.60;;
11498;SDS011;5806;48.748;9.278;2024-02-15T13:45:29;2.50;;;1.30;;
11498;SDS011;5806;48.748;9.278;2024-02-15T13:48:02;3.97;;;1.53;;
11498;SDS011;5806;48.748;9.278;2024-02-15T13:50:34;6.63;;;1.70;;
11498;SDS011;5806;48.748;9.278;2024-02-15T13:53:03;4.17;;;1.50;;
11498;SDS011;5806;48.748;9.278;2024-02-15T13:55:32;4.23;;;1.57;;
11498;SDS011;5806;48.748;9.278;2024-02-15T13:58:01;4.17;;;1.40;;
11498;SDS011;5806;48.748;9.278;2024-02-15T14:00:28;2.13;;;1.37;;
11498;SDS011;5806;48.748;9.278;2024-02-15T14:02:58;2.80;;;1.10;;
11498;SDS011;5806;48.748;9.278;2024-02-15T14:05:27;1.77;;;1.30;;
11498;SDS011;5806;48.748;9.278;2024-02-15T14:07:58;5.13;;;1.30;;
11498;SDS011;5806;48.748;9.278;2024-02-15T14:10:28;4.60;;;1.77;;
11498;SDS011;5806;48.748;9.278;2024-02-15T14:12:56;3.73;;;1.00;;
11498;SDS011;5806;48.748;9.278;2024-02-15T14:15:25;3.73;;;1.60;;
11498;SDS011;5806;48.748;9.278;2024-02-15T14:17:53;3.50;;;1.30;;
11498;SDS011;5806;48.748;9.278;2024-02-15T14:20:21;4.20;;;1.53;;
11498;SDS011;5806;48.748;9.278;2024-02-15T14:22:50;3.77;;;1.10;;
11498;SDS011;5806;48.748;9.278;2024-02-15T14:25:19;4.50;;;1.60;;
11498;SDS011;5806;48.748;9.278;2024-02-15T14:27:47;2.97;;;1.43;;
11498;SDS011;5806;48.748;9.278;2024-02-15T14:30:14;4.13;;;1.50;;
11498;SDS011;5806;48.748;9.278;2024-02-15T14:32:59;2.67;;;1.33;;
11498;SDS011;5806;48.748;9.278;2024-02-15T14:35:30;3.27;;;1.60;;
11498;SDS011;5806;48.748;9.278;2024-02-15T14:37:59;1.93;;;1.07;;
11498;SDS011;5806;48.748;9.278;2024-02-15T14:40:32;2.63;;;1.03;;
11498;SDS011;5806;48.748;9.278;2024-02-15T14:43:01;3.63;;;1.43;;
11498;SDS011;5806;48.748;9.278;2024-02-15T14:45:33;4.43;;;1.73;;
11498;SDS011;5806;48.748;9.278;2024-02-15T14:48:04;4.53;;;1.73;;
11498;SDS011;5806;48.748;9.278;2024-02-15T14:50:33;5.10;;;1.20;;
11498;SDS011;5806;48.748;9.278;2024-02-15T14:53:01;6.50;;;1.40;;
11498;SDS011;5806;48.748;9.278;2024-02-15T14:55:28;1.83;;;1.00;;
11498;SDS011;5806;48.748;9.278;2024-02-15T14:57:57;3.07;;;1.67;;
11498;SDS011;5806;48.748;9.278;2024-02-15T15:00:24;4.13;;;1.47;;
11498;SDS011;5806;48.748;9.278;2024-02-15T15:02:52;4.13;;;1.20;;
11498;SDS011;5806;48.748;9.278;2024-02-15T15:05:23;3.33;;;1.43;;
11498;SDS011;5806;48.748;9.278;2024-02-15T15:08:08;4.73;;;1.33;;
11498;SDS011;5806;48.748;9.278;2024-02-15T15:10:54;3.93;;;1.53;;
11498;SDS011;5806;48.748;9.278;2024-02-15T15:13:40;2.37;;;1.30;;
11498;SDS011;5806;48.748;9.278;2024-02-15T15:16:07;9.17;;;1.57;;
11498;SDS011;5806;48.748;9.278;2024-02-15T15:18:36;4.53;;;1.30;;
11498;SDS011;5806;48.748;9.278;2024-02-15T15:21:04;3.60;;;1.37;;
11498;SDS011;5806;48.748;9.278;2024-02-15T15:23:31;5.60;;;1.30;;
11498;SDS011;5806;48.748;9.278;2024-02-15T15:26:00;2.30;;;1.03;;
11498;SDS011;5806;48.748;9.278;2024-02-15T15:28:28;5.57;;;1.60;;
11498;SDS011;5806;48.748;9.278;2024-02-15T15:30:55;5.97;;;1.20;;